Main page
METAR-TAF:

METAR-TAF

Airports :

Pardubice, Czech Republic

Pardubice Airport

latitude: 50-00-48N, longitude: 15-44-19E, elevation: 226 m

Current weather observation

The report was made 47 minutes ago, at 22:00 UTC
Wind 3 kt from the South/Southwest
Temperature 6°C
Humidity 81%
Pressure 1018 hPa
Visibility 10 km or more
no clouds below 1500 m and no cumulonimbus

METAR: LKPD 262200Z 20003KT CAVOK 06/03 Q1018 RMK BLU

Time: 00:47 (22:47 UTC)

Forecast

The report was made 5 hours and 47 minutes ago, at 17:00 UTC
Forecast valid from 26 at 18 UTC to 27 at 18 UTC
Wind 10 kt from the West/Northwest
Visibility 10 km or more
no clouds below 1500 m and no cumulonimbus
Becoming
from 26 at 21 UTC to 27 at 00 UTC
Wind 2 kt from variable directions
Temporary
from 27 at 09 UTC to 27 at 14 UTC
Broken clouds at a height of 4000 ft
Becoming
from 27 at 12 UTC to 27 at 15 UTC
Wind 12 kt from the South/Southeast

TAF: LKPD 261700Z 2618/2718 29010KT CAVOK BECMG 2621/2700 VRB02KT TEMPO 2709/2714 BKN040 BECMG 2712/2715 15012KT

Weather observations and forecasts of more than 4000 airports (METAR and TAF reports).

The available stations are represented by yellow and red dots on the map.

Hover mouse over dot to see the name of the station.

Then click to see weather observations and forecasts.

To change the map : click on the green buttons with a black cross to zoom in, on the green button with a dash to zoom out, or on the green arrows for adjacent maps.


METAR-TAF: